createdAt,value
2018-12-29T00:01:16.029Z,92.63
2018-12-29T00:04:03.800Z,92.02
2018-12-29T00:06:32.288Z,91.98
2018-12-29T00:09:00.769Z,92.11
2018-12-29T00:11:29.260Z,91.25
2018-12-29T00:14:17.080Z,91.09
2018-12-29T00:16:45.580Z,91.45
2018-12-29T00:19:14.059Z,92.92
2018-12-29T00:22:01.697Z,93.26
2018-12-29T00:24:49.423Z,92.78
2018-12-29T00:27:37.246Z,92.31
2018-12-29T00:30:45.643Z,92.45
2018-12-29T00:33:33.400Z,92.62
2018-12-29T00:36:21.141Z,92.80
2018-12-29T00:38:49.623Z,93.09
2018-12-29T00:41:18.115Z,93.59
2018-12-29T00:43:46.605Z,93.54
2018-12-29T00:46:15.094Z,93.15
2018-12-29T00:48:43.577Z,93.36
2018-12-29T00:51:31.183Z,92.87
2018-12-29T00:57:06.225Z,93.58
2018-12-29T00:59:54.002Z,93.64
2018-12-29T01:02:41.566Z,94.24
2018-12-29T01:05:29.163Z,94.24
2018-12-29T01:07:57.655Z,94.09
2018-12-29T01:13:52.040Z,93.92
2018-12-29T01:16:39.778Z,94.15
2018-12-29T01:19:08.260Z,94.08
2018-12-29T01:21:36.747Z,94.04
2018-12-29T01:24:24.475Z,94.09
2018-12-29T01:26:52.962Z,93.79
2018-12-29T01:29:40.686Z,93.67
2018-12-29T01:32:28.424Z,93.42
2018-12-29T01:34:56.914Z,92.77
2018-12-29T01:37:44.511Z,92.87
2018-12-29T01:40:12.994Z,92.73
2018-12-29T01:43:00.731Z,92.52
2018-12-29T01:45:29.210Z,92.73
2018-12-29T01:48:10.398Z,92.95
2018-12-29T01:50:38.876Z,93.31
2018-12-29T01:56:00.171Z,93.15
2018-12-29T01:58:28.665Z,93.55
2018-12-29T02:01:16.498Z,93.17
2018-12-29T02:06:57.900Z,92.93
2018-12-29T02:09:45.511Z,92.39
2018-12-29T02:12:14.002Z,92.71
2018-12-29T02:14:42.482Z,93.85
2018-12-29T02:17:10.968Z,94.76
2018-12-29T02:22:14.135Z,94.48
2018-12-29T02:24:42.617Z,94.10
2018-12-29T02:27:30.352Z,94.78
2018-12-29T02:29:58.832Z,94.02
2018-12-29T02:32:27.320Z,93.50
2018-12-29T02:35:15.053Z,93.33
2018-12-29T02:37:43.553Z,93.74
2018-12-29T02:40:12.031Z,92.68
2018-12-29T02:42:40.520Z,92.38
2018-12-29T02:45:33.160Z,92.51
2018-12-29T02:47:58.475Z,92.48
2018-12-29T02:50:46.203Z,92.61
2018-12-29T02:53:14.696Z,92.74
2018-12-29T02:56:02.297Z,92.65
2018-12-29T02:58:50.030Z,93.39
2018-12-29T03:01:37.626Z,93.25
2018-12-29T03:04:06.116Z,92.91
2018-12-29T03:06:34.597Z,93.70
2018-12-29T03:09:22.332Z,93.50
2018-12-29T03:12:09.932Z,93.17
2018-12-29T03:14:57.536Z,93.31
2018-12-29T03:20:19.282Z,92.11
2018-12-29T03:22:47.796Z,92.70
2018-12-29T03:25:35.392Z,93.15
2018-12-29T03:28:22.996Z,93.23
2018-12-29T03:31:10.653Z,93.60
2018-12-29T03:33:58.327Z,94.21
2018-12-29T03:36:26.809Z,93.36
2018-12-29T03:39:14.547Z,92.72
2018-12-29T03:42:02.278Z,92.12
2018-12-29T03:44:30.771Z,91.84
2018-12-29T03:46:59.250Z,92.04
2018-12-29T03:49:27.733Z,92.36
2018-12-29T03:52:15.462Z,92.74
2018-12-29T03:54:43.953Z,92.83
2018-12-29T03:57:31.690Z,92.04
2018-12-29T04:00:19.283Z,92.18
2018-12-29T04:02:47.769Z,92.32
2018-12-29T04:05:16.255Z,92.40
2018-12-29T04:07:44.735Z,92.89
2018-12-29T04:10:53.141Z,92.57
2018-12-29T04:13:40.965Z,92.60
2018-12-29T04:16:09.453Z,93.04
2018-12-29T04:18:37.939Z,92.82
2018-12-29T04:23:59.414Z,93.39
2018-12-29T04:26:27.899Z,93.63
2018-12-29T04:28:56.387Z,93.18
2018-12-29T04:31:44.116Z,93.27
2018-12-29T04:34:12.607Z,93.44
2018-12-29T04:37:00.194Z,93.55
2018-12-29T04:39:28.690Z,93.12
2018-12-29T04:42:16.414Z,93.24
2018-12-29T04:44:44.907Z,93.13
2018-12-29T04:47:13.387Z,92.93
2018-12-29T04:49:41.885Z,92.67
2018-12-29T04:52:10.362Z,92.09
2018-12-29T04:54:58.099Z,91.35
2018-12-29T04:57:45.828Z,90.95
2018-12-29T05:00:33.567Z,91.79
2018-12-29T05:03:02.047Z,91.75
2018-12-29T05:05:49.646Z,91.88
2018-12-29T05:08:37.244Z,91.56
2018-12-29T05:11:05.733Z,92.56
2018-12-29T05:13:34.216Z,92.28
2018-12-29T05:16:22.049Z,92.04
2018-12-29T05:18:50.527Z,92.21
2018-12-29T05:21:38.273Z,91.85
2018-12-29T05:24:06.750Z,91.54
2018-12-29T05:26:54.488Z,92.32
2018-12-29T05:29:42.268Z,92.54
2018-12-29T05:32:29.868Z,92.93
2018-12-29T05:34:58.365Z,92.55
2018-12-29T05:37:46.094Z,93.24
2018-12-29T05:40:33.830Z,92.83
2018-12-29T05:43:02.310Z,93.46
2018-12-29T05:45:30.804Z,93.74
2018-12-29T05:47:59.273Z,93.78
2018-12-29T05:50:47.105Z,93.86
2018-12-29T05:53:15.588Z,94.04
2018-12-29T05:56:03.337Z,94.35
2018-12-29T06:04:31.451Z,94.77
2018-12-29T06:07:19.196Z,94.52
2018-12-29T06:09:47.673Z,94.88
2018-12-29T06:12:35.286Z,95.19
2018-12-29T06:17:58.372Z,95.81
2018-12-29T06:20:46.110Z,95.57
2018-12-29T06:23:33.703Z,96.34
2018-12-29T06:26:02.198Z,95.95
2018-12-29T06:28:30.680Z,94.93
2018-12-29T06:31:18.296Z,94.08
2018-12-29T06:34:06.018Z,94.14
2018-12-29T06:37:14.427Z,94.10
2018-12-29T06:40:02.156Z,94.18
2018-12-29T06:42:30.656Z,94.28
2018-12-29T06:47:46.587Z,94.26
2018-12-29T06:50:15.073Z,94.69
2018-12-29T06:52:43.563Z,95.24
2018-12-29T06:55:31.327Z,95.47
2018-12-29T06:57:59.815Z,96.29
2018-12-29T07:00:28.310Z,95.90
2018-12-29T07:03:16.035Z,95.85
2018-12-29T07:05:44.877Z,96.53
2018-12-29T07:08:32.695Z,96.89
2018-12-29T07:11:20.437Z,97.06
2018-12-29T07:14:08.168Z,97.67
2018-12-29T07:16:42.168Z,97.69
2018-12-29T07:19:26.117Z,97.23
2018-12-29T07:21:54.614Z,96.84
2018-12-29T07:24:42.340Z,96.42
2018-12-29T07:27:29.948Z,95.87
2018-12-29T07:29:58.435Z,96.75
2018-12-29T07:32:26.928Z,96.63
2018-12-29T07:34:55.490Z,96.08
2018-12-29T07:37:23.986Z,96.35
2018-12-29T07:39:52.467Z,96.13
2018-12-29T07:42:20.961Z,96.17
2018-12-29T07:44:49.445Z,95.58
2018-12-29T07:47:37.058Z,95.04
2018-12-29T07:50:45.448Z,94.97
2018-12-29T07:56:06.692Z,95.50
2018-12-29T07:58:35.183Z,95.20
2018-12-29T08:04:16.559Z,95.08
2018-12-29T08:06:45.058Z,95.57
2018-12-29T08:09:32.657Z,96.37
2018-12-29T08:12:01.161Z,96.75
2018-12-29T08:14:29.636Z,96.84
2018-12-29T08:16:58.133Z,96.18
2018-12-29T08:19:26.615Z,95.68
2018-12-29T08:21:55.111Z,95.38
2018-12-29T08:27:11.044Z,95.03
2018-12-29T08:29:58.645Z,96.16
2018-12-29T08:32:27.143Z,96.01
2018-12-29T08:34:55.629Z,95.83
2018-12-29T08:37:24.122Z,95.87
2018-12-29T08:39:52.603Z,96.63
2018-12-29T08:44:55.469Z,97.12
2018-12-29T08:47:43.076Z,96.32
2018-12-29T08:50:13.262Z,96.17
2018-12-29T08:52:41.778Z,96.25
2018-12-29T08:55:30.081Z,96.55
2018-12-29T08:57:59.732Z,96.64
2018-12-29T09:00:47.329Z,96.68
2018-12-29T09:03:15.837Z,97.00
2018-12-29T09:05:44.320Z,96.63
2018-12-29T09:08:32.061Z,96.92
2018-12-29T09:11:19.661Z,96.76
2018-12-29T09:14:07.403Z,96.13
2018-12-29T09:16:55.006Z,95.86
2018-12-29T09:19:27.244Z,96.75
2018-12-29T09:21:53.707Z,96.86
2018-12-29T09:24:22.213Z,96.77
2018-12-29T09:27:09.945Z,96.07
2018-12-29T09:29:57.559Z,96.22
2018-12-29T09:32:45.388Z,96.14
2018-12-29T09:35:32.989Z,95.99
2018-12-29T09:38:01.784Z,95.75
2018-12-29T09:40:30.288Z,95.82
2018-12-29T09:43:18.017Z,96.87
2018-12-29T09:45:46.506Z,97.69
2018-12-29T09:50:49.441Z,97.84
2018-12-29T09:53:37.189Z,97.79
2018-12-29T09:56:05.669Z,97.47
2018-12-29T09:58:34.166Z,96.94
2018-12-29T10:01:21.898Z,96.37
2018-12-29T10:04:09.506Z,95.61
2018-12-29T10:06:57.104Z,96.12
2018-12-29T10:09:25.595Z,96.00
2018-12-29T10:12:13.188Z,95.12
2018-12-29T10:14:41.681Z,94.25
2018-12-29T10:17:29.409Z,94.88
2018-12-29T10:19:57.904Z,94.66
2018-12-29T10:22:45.503Z,94.51
2018-12-29T10:25:33.110Z,94.92
2018-12-29T10:28:20.950Z,94.92
2018-12-29T10:30:49.440Z,94.96
2018-12-29T10:33:17.929Z,95.08
2018-12-29T10:38:53.106Z,94.77
2018-12-29T10:41:21.588Z,94.15
2018-12-29T10:43:50.074Z,93.48
2018-12-29T10:46:37.803Z,93.12
2018-12-29T10:49:06.295Z,92.96
2018-12-29T10:51:34.770Z,92.95
2018-12-29T10:54:22.601Z,93.03
2018-12-29T10:56:51.083Z,92.89
2018-12-29T10:59:19.570Z,92.14
2018-12-29T11:01:48.051Z,92.07
2018-12-29T11:07:09.703Z,90.81
2018-12-29T11:09:38.195Z,91.00
2018-12-29T11:12:25.795Z,91.73
2018-12-29T11:14:54.314Z,91.79
2018-12-29T11:17:42.434Z,91.31
2018-12-29T11:20:12.275Z,91.02
2018-12-29T11:22:40.809Z,90.38
2018-12-29T11:25:09.317Z,90.09
2018-12-29T11:27:56.978Z,90.28
2018-12-29T11:30:25.559Z,89.60
2018-12-29T11:32:54.092Z,89.58
2018-12-29T11:35:41.926Z,89.83
2018-12-29T11:38:29.672Z,90.35
2018-12-29T11:40:58.192Z,90.56
2018-12-29T11:46:34.896Z,90.79
2018-12-29T11:49:03.414Z,91.04
2018-12-29T11:51:51.051Z,91.70
2018-12-29T11:54:19.553Z,91.87
2018-12-29T11:56:48.071Z,92.12
2018-12-29T11:59:16.590Z,92.77
2018-12-29T12:02:04.417Z,92.16
2018-12-29T12:04:52.055Z,92.04
2018-12-29T12:07:39.652Z,91.48
2018-12-29T12:10:08.164Z,91.29
2018-12-29T12:12:38.668Z,91.98
2018-12-29T12:15:47.086Z,92.06
2018-12-29T12:18:17.358Z,92.52
2018-12-29T12:21:04.923Z,92.19
2018-12-29T12:23:52.670Z,92.24
2018-12-29T12:26:21.193Z,92.34
2018-12-29T12:29:09.044Z,92.45
2018-12-29T12:31:58.401Z,92.54
2018-12-29T12:34:26.918Z,92.58
2018-12-29T12:36:55.412Z,92.51
2018-12-29T12:39:43.017Z,92.47
2018-12-29T12:42:11.515Z,92.10
2018-12-29T12:44:40.004Z,92.05
2018-12-29T12:47:10.238Z,92.54
2018-12-29T12:49:38.855Z,91.98
2018-12-29T12:52:07.338Z,92.01
2018-12-29T12:54:35.820Z,91.96
2018-12-29T12:57:25.286Z,91.48
2018-12-29T12:59:55.572Z,91.34
2018-12-29T13:02:25.815Z,91.94
2018-12-29T13:04:54.299Z,91.91
2018-12-29T13:07:41.955Z,91.47
2018-12-29T13:10:29.684Z,91.27
2018-12-29T13:12:58.182Z,91.36
2018-12-29T13:15:26.704Z,91.44
2018-12-29T13:17:55.187Z,91.74
2018-12-29T13:20:42.797Z,91.26
2018-12-29T13:23:11.308Z,91.06
2018-12-29T13:25:58.910Z,91.58
2018-12-29T13:28:46.518Z,91.79
2018-12-29T13:31:15.012Z,91.73
2018-12-29T13:33:43.510Z,91.60
2018-12-29T13:36:33.003Z,91.13
2018-12-29T13:39:01.504Z,91.16
2018-12-29T13:41:30.004Z,90.79
2018-12-29T13:44:17.765Z,90.70
2018-12-29T13:46:46.298Z,90.16
2018-12-29T13:49:14.785Z,90.15
2018-12-29T13:51:43.270Z,90.72
2018-12-29T13:57:01.051Z,90.73
2018-12-29T13:59:29.667Z,90.64
2018-12-29T14:02:24.634Z,91.07
2018-12-29T14:04:53.115Z,91.50
2018-12-29T14:07:40.751Z,90.97
2018-12-29T14:10:28.359Z,90.74
2018-12-29T14:12:56.861Z,90.92
2018-12-29T14:15:26.442Z,90.98
2018-12-29T14:17:55.623Z,91.14
2018-12-29T14:20:24.135Z,91.02
2018-12-29T14:22:52.637Z,90.72
2018-12-29T14:25:40.410Z,90.87
2018-12-29T14:28:28.215Z,90.75
2018-12-29T14:30:56.742Z,90.76
2018-12-29T14:33:44.568Z,90.46
2018-12-29T14:36:13.081Z,90.74
2018-12-29T14:39:00.707Z,90.48
2018-12-29T14:44:03.163Z,90.14
2018-12-29T14:46:50.816Z,90.48
2018-12-29T14:49:19.333Z,90.46
2018-12-29T14:51:48.099Z,90.49
2018-12-29T14:54:35.850Z,91.34
2018-12-29T14:57:04.463Z,91.69
2018-12-29T14:59:33.269Z,92.38
2018-12-29T15:04:36.304Z,93.36
2018-12-29T15:07:04.900Z,93.07
2018-12-29T15:09:33.411Z,92.90
2018-12-29T15:12:01.972Z,92.91
2018-12-29T15:14:49.667Z,92.95
2018-12-29T15:17:18.191Z,93.54
2018-12-29T15:19:46.696Z,94.33
2018-12-29T15:22:34.614Z,95.02
2018-12-29T15:25:22.484Z,95.13
2018-12-29T15:27:52.776Z,95.37
2018-12-29T15:30:21.281Z,95.83
2018-12-29T15:33:08.928Z,95.73
2018-12-29T15:35:56.772Z,95.91
2018-12-29T15:38:25.300Z,95.91
2018-12-29T15:41:14.610Z,96.88
2018-12-29T15:43:43.094Z,97.10
2018-12-29T15:46:11.602Z,96.65
2018-12-29T15:48:40.150Z,97.01
2018-12-29T15:51:08.674Z,96.89
2018-12-29T15:53:37.199Z,97.10
2018-12-29T15:56:24.855Z,97.62
2018-12-29T15:58:53.368Z,97.49
2018-12-29T16:01:23.578Z,97.06
2018-12-29T16:03:52.106Z,97.20
2018-12-29T16:06:20.622Z,97.37
2018-12-29T16:08:49.170Z,97.67
2018-12-29T16:11:25.998Z,97.67
2018-12-29T16:13:49.624Z,97.82
2018-12-29T16:16:18.153Z,97.90
2018-12-29T16:19:05.994Z,98.00
2018-12-29T16:21:34.546Z,98.20
2018-12-29T16:24:03.072Z,98.41
2018-12-29T16:26:50.720Z,98.28
2018-12-29T16:29:19.227Z,98.57
2018-12-29T16:31:47.729Z,98.99
2018-12-29T16:34:37.190Z,99.47
2018-12-29T16:37:24.802Z,98.87
2018-12-29T16:39:53.376Z,98.75
2018-12-29T16:42:42.815Z,99.23
2018-12-29T16:45:11.370Z,99.05
2018-12-29T16:47:39.911Z,99.36
2018-12-29T16:50:48.307Z,99.52
2018-12-29T16:53:36.046Z,99.32
2018-12-29T16:56:04.579Z,98.94
2018-12-29T16:58:33.124Z,98.17
2018-12-29T17:01:20.799Z,97.46
2018-12-29T17:04:08.813Z,97.13
2018-12-29T17:06:37.625Z,96.84
2018-12-29T17:09:46.074Z,97.99
2018-12-29T17:12:36.950Z,98.40
2018-12-29T17:15:45.848Z,98.70
2018-12-29T17:18:16.161Z,98.53
2018-12-29T17:20:44.721Z,97.93
2018-12-29T17:23:32.435Z,98.17
2018-12-29T17:26:01.041Z,98.45
2018-12-29T17:28:31.291Z,98.73
2018-12-29T17:30:59.837Z,98.60
2018-12-29T17:33:28.355Z,98.21
2018-12-29T17:36:16.152Z,98.23
2018-12-29T17:39:04.485Z,98.48
2018-12-29T17:41:33.008Z,98.41
2018-12-29T17:44:01.518Z,98.63
2018-12-29T17:46:31.773Z,98.72
2018-12-29T17:49:00.318Z,98.78
2018-12-29T17:51:47.933Z,98.62
2018-12-29T17:54:16.438Z,98.27
2018-12-29T17:56:45.251Z,98.36
2018-12-29T17:59:32.982Z,97.78
2018-12-29T18:04:50.617Z,97.68
2018-12-29T18:07:20.900Z,98.06
2018-12-29T18:10:08.514Z,98.13
2018-12-29T18:12:37.034Z,97.98
2018-12-29T18:15:45.477Z,98.02
2018-12-29T18:18:33.191Z,98.39
2018-12-29T18:21:01.737Z,98.80
2018-12-29T18:23:31.983Z,98.94
2018-12-29T18:26:00.487Z,99.14
2018-12-29T18:28:29.374Z,99.04
2018-12-29T18:30:59.243Z,99.18
2018-12-29T18:33:47.048Z,99.31
2018-12-29T18:36:15.571Z,98.95
2018-12-29T18:38:45.819Z,98.47
2018-12-29T18:41:14.346Z,97.96
2018-12-29T18:44:02.068Z,97.61
2018-12-29T18:46:30.572Z,97.63
2018-12-29T18:48:59.109Z,97.90
2018-12-29T18:51:27.649Z,98.35
2018-12-29T18:54:15.471Z,98.55
2018-12-29T18:57:03.340Z,99.49
2018-12-29T18:59:31.844Z,99.82
2018-12-29T19:02:00.338Z,99.75
2018-12-29T19:04:28.852Z,99.16
2018-12-29T19:06:57.410Z,99.16
2018-12-29T19:09:25.933Z,98.90
2018-12-29T19:11:54.535Z,98.95
2018-12-29T19:14:24.748Z,99.04
2018-12-29T19:16:55.001Z,98.91
2018-12-29T19:19:25.233Z,98.80
2018-12-29T19:21:53.771Z,98.82
2018-12-29T19:24:41.546Z,99.21
2018-12-29T19:27:10.153Z,99.27
2018-12-29T19:29:40.370Z,99.38
2018-12-29T19:32:10.595Z,99.25
2018-12-29T19:34:40.814Z,99.44
2018-12-29T19:37:11.067Z,99.95
2018-12-29T19:40:00.429Z,99.96
2018-12-29T19:42:29.183Z,100.00
2018-12-29T19:45:16.827Z,100.00
2018-12-29T19:47:45.787Z,100.00
2018-12-29T19:50:16.132Z,100.00
2018-12-29T19:52:44.737Z,100.00
2018-12-29T19:55:32.505Z,100.00
2018-12-29T19:58:00.998Z,100.00
2018-12-29T20:00:50.640Z,100.00
2018-12-29T20:03:21.009Z,100.00
2018-12-29T20:05:51.241Z,98.84
2018-12-29T20:08:19.746Z,99.16
2018-12-29T20:10:49.980Z,98.22
2018-12-29T20:13:18.494Z,97.67
2018-12-29T20:15:47.030Z,96.92
2018-12-29T20:18:34.749Z,97.01
2018-12-29T20:21:03.282Z,96.66
2018-12-29T20:23:31.777Z,96.62
2018-12-29T20:26:00.308Z,96.25
2018-12-29T20:28:47.970Z,96.08
2018-12-29T20:31:16.490Z,96.14
2018-12-29T20:33:44.984Z,96.42
2018-12-29T20:36:13.511Z,95.79
2018-12-29T20:39:01.244Z,95.61
2018-12-29T20:41:48.977Z,96.38
2018-12-29T20:47:04.911Z,96.75
2018-12-29T20:52:20.846Z,97.81
2018-12-29T20:54:49.335Z,98.66
2018-12-29T20:57:17.883Z,98.98
2018-12-29T20:59:46.411Z,99.22
2018-12-29T21:02:14.963Z,99.53
2018-12-29T21:05:02.593Z,99.95
2018-12-29T21:07:31.131Z,99.97
2018-12-29T21:09:59.656Z,100.00
2018-12-29T21:12:28.165Z,100.00
2018-12-29T21:17:44.216Z,100.00
2018-12-29T21:20:17.372Z,100.00
2018-12-29T21:22:43.019Z,100.00
2018-12-29T21:27:59.058Z,100.00
2018-12-29T21:30:27.693Z,100.00
2018-12-29T21:33:15.461Z,100.00
2018-12-29T21:35:45.711Z,100.00
2018-12-29T21:38:33.401Z,100.00
2018-12-29T21:41:21.065Z,100.00
2018-12-29T21:44:08.777Z,100.00
2018-12-29T21:46:56.431Z,100.00
2018-12-29T21:49:25.058Z,100.00
2018-12-29T21:51:53.569Z,100.00
2018-12-29T21:54:22.071Z,100.00
2018-12-29T21:56:50.613Z,100.00
2018-12-29T21:59:19.107Z,100.00
2018-12-29T22:02:06.776Z,100.00
2018-12-29T22:04:54.371Z,100.00
2018-12-29T22:07:22.861Z,100.00
2018-12-29T22:09:51.414Z,100.00
2018-12-29T22:12:39.271Z,100.00
2018-12-29T22:17:56.880Z,100.00
2018-12-29T22:20:44.723Z,100.00
2018-12-29T22:23:32.643Z,100.00
2018-12-29T22:26:01.257Z,100.00
2018-12-29T22:28:48.896Z,100.00
2018-12-29T22:31:17.367Z,100.00
2018-12-29T22:33:47.587Z,100.00
2018-12-29T22:36:16.085Z,100.00
2018-12-29T22:39:24.599Z,100.00
2018-12-29T22:41:53.131Z,100.00
2018-12-29T22:44:21.639Z,100.00
2018-12-29T22:46:50.170Z,100.00
2018-12-29T22:49:37.930Z,100.00
2018-12-29T22:52:25.793Z,100.00
2018-12-29T22:55:13.415Z,100.00
2018-12-29T22:57:41.933Z,100.00
2018-12-29T23:00:50.428Z,100.00
2018-12-29T23:03:18.998Z,100.00
2018-12-29T23:05:47.556Z,100.00
2018-12-29T23:08:16.087Z,100.00
2018-12-29T23:10:44.599Z,100.00
2018-12-29T23:13:13.132Z,100.00
2018-12-29T23:15:41.802Z,100.00
2018-12-29T23:18:29.433Z,100.00
2018-12-29T23:20:57.940Z,100.00
2018-12-29T23:23:26.513Z,100.00
2018-12-29T23:25:56.763Z,100.00
2018-12-29T23:28:44.595Z,100.00
2018-12-29T23:34:00.543Z,100.00
2018-12-29T23:36:29.091Z,100.00
2018-12-29T23:38:57.644Z,100.00
2018-12-29T23:44:13.608Z,100.00
2018-12-29T23:46:42.190Z,100.00
2018-12-29T23:49:29.998Z,100.00
2018-12-29T23:52:00.266Z,100.00
2018-12-29T23:54:28.879Z,100.00
2018-12-29T23:56:59.162Z,100.00
2018-12-29T23:59:27.703Z,100.00
